This is the latest recevied weather packets stored in our database for station/object N0QWM. If no packets are shown the sender has not sent any weather packets the latest 1 day(s).
| Time | Temp. | Humidity | Pressure | Rain* | Wind** | Luminosity | Snow |
|---|---|---|---|---|---|---|---|
| 1778048311 | 20.56° C | 80% | 1017.7 hPa | 0 mm | 0.45 m/s, 290° | 0 W/m² | - |
| 1778048008 | 20.56° C | 80% | 1017.7 hPa | 0 mm | 0.45 m/s, 274° | 0 W/m² | - |
| 1778047706 | 20.56° C | 80% | 1017.5 hPa | 0 mm | 0 m/s | 0 W/m² | - |
| 1778047403 | 20.56° C | 80% | 1017.8 hPa | 0 mm | 0 m/s | 0 W/m² | - |
| 1778047100 | 20.56° C | 80% | 1017.8 hPa | 0 mm | 0 m/s | 0 W/m² | - |
| 1778046797 | 20.56° C | 79% | 1017.7 hPa | 0 mm | 0 m/s | 0 W/m² | - |
| 1778046494 | 21.11° C | 79% | 1017.6 hPa | 0 mm | 0.89 m/s, 272° | 0 W/m² | - |
| 1778046191 | 21.11° C | 78% | 1017.8 hPa | 0 mm | 0.45 m/s, 271° | 0 W/m² | - |
| 1778045887 | 21.11° C | 78% | 1017.8 hPa | 0 mm | 0.45 m/s, 273° | 0 W/m² | - |
| 1778045586 | 21.11° C | 79% | 1017.8 hPa | 0 mm | 1.34 m/s, 254° | 0 W/m² | - |
| 1778045283 | 21.11° C | 78% | 1017.7 hPa | 0 mm | 0.45 m/s, 291° | 0 W/m² | - |
| 1778044982 | 21.11° C | 78% | 1017.7 hPa | 0 mm | 0 m/s | 0 W/m² | - |
| 1778044679 | 21.11° C | 78% | 1017.3 hPa | 0 mm | 0 m/s | 0 W/m² | - |
| 1778044375 | 21.11° C | 77% | 1017.6 hPa | 0 mm | 0.45 m/s, 306° | 0 W/m² | - |
| 1778044073 | 21.11° C | 77% | 1017.5 hPa | 0 mm | 1.79 m/s, 274° | 0 W/m² | - |
| 1778043770 | 21.11° C | 77% | 1017.7 hPa | 0 mm | 0.45 m/s, 261° | 0 W/m² | - |
| 1778043467 | 21.11° C | 77% | 1017.7 hPa | 0 mm | 0.45 m/s, 292° | 0 W/m² | - |
| 1778043163 | 21.11° C | 77% | 1017.5 hPa | 0 mm | 0.45 m/s, 306° | 0 W/m² | - |
| 1778042861 | 21.67° C | 76% | 1017.5 hPa | 0 mm | 1.34 m/s, 284° | 0 W/m² | - |
| 1778042558 | 21.67° C | 76% | 1017.3 hPa | 0 mm | 1.34 m/s, 296° | 0 W/m² | - |
| 1778042256 | 21.67° C | 76% | 1017.4 hPa | 0 mm | 0.45 m/s, 291° | 0 W/m² | - |
| 1778041953 | 21.67° C | 76% | 1017.2 hPa | 0 mm | 0 m/s | 0 W/m² | - |
| 1778041651 | 21.67° C | 76% | 1017.2 hPa | 0 mm | 0.45 m/s, 298° | 0 W/m² | - |
| 1778041353 | 21.67° C | 75% | 1017.2 hPa | 0 mm | 0 m/s | 0 W/m² | - |
| 1778041048 | 21.67° C | 76% | 1017.5 hPa | 0 mm | 1.79 m/s, 267° | 0 W/m² | - |
* Rain latest hour (hover to see other rain measurements)
** Current wind speed in m/s (hover to see current wind gust speed)